Time;durP1;ratioP1;P1;durP2;ratioP2;P2;SDS_P1;SDS_P2;PMS_P1;PMS_P2;Temp;Humidity;BMP_temperature;BMP_pressure;BME280_temperature;BME280_humidity;BME280_pressure;Samples;Min_cycle;Max_cycle;Signal;HPM_P1;HPM_P2
2023/07/01 00:00:53;;;;;;;2.10;1.17;;;21.30;71.40;;;;;;5034045;28;20203;-74
2023/07/01 00:03:19;;;;;;;2.53;1.80;;;21.30;71.70;;;;;;5031313;28;20201;-76
2023/07/01 00:05:45;;;;;;;2.17;1.13;;;21.40;71.90;;;;;;5026365;28;21119;-77
2023/07/01 00:08:10;;;;;;;2.20;1.20;;;21.30;72.00;;;;;;5034083;28;20195;-76
2023/07/01 00:10:36;;;;;;;2.33;1.20;;;21.30;72.10;;;;;;5051798;28;20204;-76
2023/07/01 00:13:02;;;;;;;3.43;1.10;;;21.30;72.30;;;;;;5017282;28;20197;-77
2023/07/01 00:15:28;;;;;;;2.80;0.93;;;21.30;72.50;;;;;;5034735;28;20277;-77
2023/07/01 00:17:54;;;;;;;2.67;1.17;;;21.30;72.70;;;;;;5052449;28;20648;-77
2023/07/01 00:20:21;;;;;;;1.97;1.00;;;21.30;72.90;;;;;;5052683;28;20571;-77
2023/07/01 00:22:47;;;;;;;2.13;1.10;;;21.30;73.20;;;;;;5033702;28;20201;-77
2023/07/01 00:25:13;;;;;;;3.00;1.30;;;21.30;73.40;;;;;;5052330;28;21370;-77
2023/07/01 00:27:38;;;;;;;2.20;0.97;;;21.30;73.50;;;;;;5052058;28;20617;-77
2023/07/01 00:30:05;;;;;;;1.90;1.00;;;21.30;73.80;;;;;;5051819;28;20611;-77
2023/07/01 00:32:30;;;;;;;2.57;1.00;;;21.30;73.90;;;;;;5033533;28;20186;-77
2023/07/01 00:34:56;;;;;;;2.43;1.57;;;21.30;74.10;;;;;;5034201;28;20587;-77
2023/07/01 00:37:22;;;;;;;4.53;2.30;;;21.30;74.20;;;;;;5016710;28;20288;-77
2023/07/01 00:39:49;;;;;;;2.83;1.10;;;21.30;74.30;;;;;;5017727;28;20596;-77
2023/07/01 00:42:15;;;;;;;2.03;1.20;;;21.30;74.50;;;;;;5050963;28;20907;-78
2023/07/01 00:44:41;;;;;;;3.50;1.13;;;21.30;74.50;;;;;;5017341;28;20186;-77
2023/07/01 00:47:07;;;;;;;2.00;1.10;;;21.30;74.60;;;;;;5033893;28;20808;-77
2023/07/01 00:49:33;;;;;;;2.00;1.10;;;21.30;74.70;;;;;;5033733;28;20212;-77
2023/07/01 00:51:59;;;;;;;1.67;1.00;;;21.30;74.90;;;;;;5017033;28;20682;-77
2023/07/01 00:54:26;;;;;;;2.17;1.00;;;21.20;74.90;;;;;;5050951;28;20689;-77
2023/07/01 00:56:52;;;;;;;2.00;0.87;;;21.20;75.00;;;;;;5048676;28;20576;-77
2023/07/01 00:59:18;;;;;;;2.47;1.07;;;21.20;75.10;;;;;;5035775;28;20621;-78
2023/07/01 01:01:49;;;;;;;2.80;0.90;;;21.20;75.30;;;;;;5050162;28;20210;-77
2023/07/01 01:04:20;;;;;;;2.97;1.27;;;21.20;75.60;;;;;;5033793;28;20189;-77
2023/07/01 01:07:03;;;;;;;2.73;1.00;;;21.20;75.60;;;;;;5016700;28;20682;-77
2023/07/01 01:09:45;;;;;;;3.10;1.37;;;21.20;75.80;;;;;;5016879;28;21174;-77
2023/07/01 01:12:13;;;;;;;3.90;1.20;;;21.20;75.90;;;;;;5015576;28;20619;-77
2023/07/01 01:14:42;;;;;;;1.77;0.97;;;21.20;76.00;;;;;;5041039;28;21066;-76
2023/07/01 01:17:13;;;;;;;2.37;1.00;;;21.20;76.00;;;;;;5051217;28;21265;-77
2023/07/01 01:19:56;;;;;;;2.40;0.80;;;21.20;76.20;;;;;;5017110;28;20940;-77
2023/07/01 01:22:28;;;;;;;3.07;1.10;;;21.20;76.40;;;;;;5015617;28;20621;-77
2023/07/01 01:24:57;;;;;;;2.20;1.03;;;21.20;76.40;;;;;;5033208;28;20681;-76
2023/07/01 01:27:35;;;;;;;3.47;1.13;;;21.20;76.70;;;;;;5016451;28;20622;-77
2023/07/01 01:30:01;;;;;;;2.23;1.10;;;21.10;76.80;;;;;;5000239;28;20788;-77
2023/07/01 01:32:28;;;;;;;1.60;1.00;;;21.20;76.90;;;;;;5015872;28;20714;-77
2023/07/01 01:34:54;;;;;;;2.53;1.20;;;21.20;77.00;;;;;;5000045;28;20744;-77
2023/07/01 01:37:51;;;;;;;2.17;1.20;;;21.10;77.00;;;;;;5000307;28;20674;-78
2023/07/01 01:40:39;;;;;;;2.30;1.00;;;21.10;77.20;;;;;;5032537;28;20616;-77
2023/07/01 01:43:22;;;;;;;2.97;1.00;;;21.10;77.40;;;;;;5016179;28;20714;-77
2023/07/01 01:45:48;;;;;;;1.80;0.90;;;21.10;77.50;;;;;;5050472;28;20610;-77
2023/07/01 01:48:15;;;;;;;4.80;1.00;;;21.10;77.70;;;;;;5032574;28;20580;-77
2023/07/01 01:50:41;;;;;;;3.90;1.13;;;21.10;78.00;;;;;;5032034;28;20631;-77
2023/07/01 01:53:10;;;;;;;2.00;1.07;;;21.10;78.20;;;;;;5016275;28;20658;-77
2023/07/01 01:55:38;;;;;;;3.30;0.93;;;21.10;78.40;;;;;;5032400;28;21011;-77
2023/07/01 01:58:04;;;;;;;1.90;1.00;;;21.10;78.40;;;;;;5016262;28;20602;-77
2023/07/01 02:00:33;;;;;;;1.53;0.80;;;21.20;78.60;;;;;;5015531;28;20584;-76
2023/07/01 02:02:59;;;;;;;4.07;0.90;;;21.20;78.80;;;;;;5016081;28;20254;-77
2023/07/01 02:05:25;;;;;;;1.87;0.90;;;21.20;78.80;;;;;;5016002;28;20702;-77
2023/07/01 02:07:52;;;;;;;3.20;1.37;;;21.20;78.80;;;;;;5050467;28;20583;-77
2023/07/01 02:10:19;;;;;;;1.70;0.80;;;21.20;78.90;;;;;;5032337;28;20639;-77
2023/07/01 02:12:46;;;;;;;1.60;0.80;;;21.20;79.00;;;;;;5031553;28;20650;-77
2023/07/01 02:15:12;;;;;;;1.50;0.90;;;21.20;79.00;;;;;;5032781;28;20729;-77
2023/07/01 02:17:38;;;;;;;2.10;1.00;;;21.20;79.10;;;;;;5032241;28;20663;-77
2023/07/01 02:20:05;;;;;;;1.63;1.03;;;21.30;79.20;;;;;;5050436;28;20180;-76
2023/07/01 02:22:31;;;;;;;1.73;0.70;;;21.30;79.20;;;;;;5031277;28;20196;-76
2023/07/01 02:24:57;;;;;;;1.57;0.90;;;21.30;79.20;;;;;;5015843;28;20587;-77
2023/07/01 02:27:22;;;;;;;2.47;1.27;;;21.30;80.00;;;;;;5049739;28;21160;-77
2023/07/01 02:29:49;;;;;;;2.17;1.10;;;21.30;79.10;;;;;;5015460;28;20258;-77
2023/07/01 02:32:15;;;;;;;2.20;1.00;;;21.30;79.10;;;;;;5048714;28;20173;-77
2023/07/01 02:34:40;;;;;;;4.00;0.93;;;21.30;79.20;;;;;;5015505;28;21265;-77
2023/07/01 02:37:06;;;;;;;4.67;1.00;;;21.30;79.20;;;;;;4998638;28;20181;-77
2023/07/01 02:39:32;;;;;;;1.63;0.87;;;21.30;79.20;;;;;;5049524;28;20204;-77
2023/07/01 02:41:58;;;;;;;2.13;0.90;;;21.30;79.20;;;;;;5049311;28;20259;-77
2023/07/01 02:44:24;;;;;;;3.50;1.00;;;21.30;79.20;;;;;;5031901;28;21105;-77
2023/07/01 02:46:49;;;;;;;2.10;0.90;;;21.30;79.10;;;;;;5032058;28;20180;-77
2023/07/01 02:49:16;;;;;;;3.60;1.00;;;21.30;79.00;;;;;;5049640;28;20199;-77
2023/07/01 02:51:43;;;;;;;2.40;0.90;;;21.30;79.10;;;;;;5014772;28;20594;-77
2023/07/01 02:54:08;;;;;;;1.93;0.93;;;21.30;79.10;;;;;;5031475;28;21154;-77
2023/07/01 02:56:34;;;;;;;1.90;0.90;;;21.30;79.10;;;;;;4999720;28;20169;-76
2023/07/01 02:59:00;;;;;;;2.47;0.93;;;21.30;79.10;;;;;;5031926;28;20173;-77
2023/07/01 03:01:25;;;;;;;3.03;0.90;;;21.30;79.20;;;;;;5017033;28;20605;-77
2023/07/01 03:03:53;;;;;;;1.93;1.10;;;21.30;79.10;;;;;;5019341;28;20248;-77
2023/07/01 03:06:19;;;;;;;2.70;1.10;;;21.40;79.30;;;;;;5053799;28;20583;-77
2023/07/01 03:08:44;;;;;;;1.77;0.90;;;21.40;79.30;;;;;;5035877;28;20599;-77
2023/07/01 03:11:10;;;;;;;3.00;0.80;;;21.40;79.40;;;;;;5018305;28;20635;-78
2023/07/01 03:13:38;;;;;;;2.47;1.10;;;21.40;79.40;;;;;;5036191;28;20211;-77
2023/07/01 03:16:06;;;;;;;1.60;0.87;;;21.40;79.30;;;;;;5035628;28;20200;-77
2023/07/01 03:18:35;;;;;;;2.13;0.80;;;21.40;79.30;;;;;;5035836;28;20634;-77
2023/07/01 03:21:01;;;;;;;2.30;0.83;;;21.40;79.30;;;;;;5018737;28;20694;-77
2023/07/01 03:23:27;;;;;;;3.43;0.80;;;21.40;79.30;;;;;;5035174;28;20706;-77
2023/07/01 03:25:53;;;;;;;1.50;0.90;;;21.40;79.50;;;;;;5053144;28;20177;-77
2023/07/01 03:28:20;;;;;;;2.80;0.97;;;21.40;79.40;;;;;;5035753;28;20602;-77
2023/07/01 03:30:46;;;;;;;2.50;1.00;;;21.40;79.50;;;;;;5018275;28;20631;-76
2023/07/01 03:33:12;;;;;;;1.80;0.80;;;21.40;79.50;;;;;;5035156;28;20638;-77
2023/07/01 03:35:38;;;;;;;2.20;0.90;;;21.50;79.50;;;;;;5035512;28;20185;-76
2023/07/01 03:38:04;;;;;;;2.27;0.90;;;21.50;79.40;;;;;;5018783;28;20575;-76
2023/07/01 03:40:31;;;;;;;2.97;1.00;;;21.50;79.50;;;;;;5054446;28;20611;-75
2023/07/01 03:42:56;;;;;;;2.30;1.00;;;21.50;79.40;;;;;;5046722;28;20614;-75
2023/07/01 03:45:22;;;;;;;1.77;0.80;;;21.40;79.30;;;;;;5060855;28;20601;-76
2023/07/01 03:47:48;;;;;;;2.40;0.87;;;21.50;79.40;;;;;;5043957;28;20185;-76
2023/07/01 03:50:14;;;;;;;1.63;0.77;;;21.50;79.40;;;;;;5056318;28;20717;-75
2023/07/01 03:52:41;;;;;;;2.03;0.93;;;21.40;79.20;;;;;;5034913;28;20189;-77
2023/07/01 03:55:09;;;;;;;3.00;0.80;;;21.50;79.40;;;;;;5019671;28;20591;-77
2023/07/01 03:57:35;;;;;;;2.77;1.00;;;21.50;79.40;;;;;;5035748;28;20602;-76
2023/07/01 04:00:08;;;;;;;2.00;1.10;;;21.50;79.50;;;;;;5019329;28;20580;-77
2023/07/01 04:02:38;;;;;;;2.53;0.97;;;21.50;79.40;;;;;;5052318;28;20677;-77
2023/07/01 04:05:10;;;;;;;2.20;0.80;;;21.50;79.40;;;;;;5052822;28;20587;-77
2023/07/01 04:07:41;;;;;;;2.57;0.90;;;21.50;80.20;;;;;;5019465;28;20172;-76
2023/07/01 04:10:08;;;;;;;2.00;0.80;;;21.60;79.60;;;;;;5055907;28;20704;-77
2023/07/01 04:12:34;;;;;;;1.67;0.80;;;21.60;79.60;;;;;;5017027;28;20716;-77
2023/07/01 04:15:01;;;;;;;2.30;1.00;;;21.50;79.50;;;;;;5033675;28;20633;-76
2023/07/01 04:17:28;;;;;;;1.73;1.10;;;21.60;79.60;;;;;;5034308;28;20649;-77
2023/07/01 04:19:53;;;;;;;2.53;1.27;;;21.60;79.60;;;;;;5033832;28;20586;-76
2023/07/01 04:22:20;;;;;;;2.37;1.00;;;21.50;79.70;;;;;;5018105;28;20923;-76
2023/07/01 04:24:45;;;;;;;1.60;1.00;;;21.50;79.80;;;;;;5035024;28;20173;-76
2023/07/01 04:27:11;;;;;;;3.87;1.00;;;21.50;80.00;;;;;;5053371;28;20572;-77
2023/07/01 04:29:37;;;;;;;3.47;1.10;;;21.50;80.10;;;;;;5053118;28;20205;-76
2023/07/01 04:32:03;;;;;;;2.10;1.00;;;21.50;80.20;;;;;;5052693;28;20703;-77
2023/07/01 04:34:28;;;;;;;1.90;1.10;;;21.50;80.40;;;;;;5034883;28;20263;-77
2023/07/01 04:36:54;;;;;;;1.70;0.90;;;21.40;80.50;;;;;;5053042;28;21013;-77
2023/07/01 04:39:23;;;;;;;1.83;0.90;;;21.40;80.60;;;;;;5053191;28;20177;-76
2023/07/01 04:41:49;;;;;;;2.33;1.00;;;21.40;80.90;;;;;;5052050;28;20195;-77
2023/07/01 04:44:15;;;;;;;1.80;0.90;;;21.40;81.00;;;;;;5034982;28;20616;-77
2023/07/01 04:46:41;;;;;;;2.60;1.07;;;21.40;81.00;;;;;;5052877;28;20564;-76
2023/07/01 04:49:08;;;;;;;2.67;0.93;;;21.40;81.10;;;;;;5018425;28;20902;-76
2023/07/01 04:51:35;;;;;;;2.30;1.10;;;21.30;81.10;;;;;;5034463;28;20228;-77
2023/07/01 04:54:03;;;;;;;1.60;1.10;;;21.30;81.30;;;;;;5052849;28;20592;-77
2023/07/01 04:56:30;;;;;;;2.70;0.90;;;21.20;81.40;;;;;;5017896;28;20579;-77
2023/07/01 04:58:55;;;;;;;2.10;1.23;;;21.20;81.90;;;;;;5034758;28;20675;-77
2023/07/01 05:01:21;;;;;;;2.17;1.20;;;21.10;82.90;;;;;;5017377;28;21468;-77
2023/07/01 05:03:47;;;;;;;3.00;1.00;;;21.00;82.40;;;;;;5052475;28;20196;-77
2023/07/01 05:06:12;;;;;;;2.00;1.13;;;20.90;82.80;;;;;;5035066;28;20254;-77
2023/07/01 05:08:38;;;;;;;1.90;0.93;;;20.80;83.20;;;;;;5035088;28;20180;-77
2023/07/01 05:11:04;;;;;;;2.80;0.90;;;20.80;83.60;;;;;;5051704;28;20192;-77
2023/07/01 05:13:29;;;;;;;1.93;1.00;;;20.80;84.20;;;;;;5052402;28;20720;-77
2023/07/01 05:15:55;;;;;;;2.73;1.07;;;20.80;84.50;;;;;;5052304;28;20176;-77
2023/07/01 05:18:21;;;;;;;2.23;0.90;;;20.90;84.90;;;;;;5034160;28;20604;-77
2023/07/01 05:20:46;;;;;;;2.40;1.30;;;20.90;85.00;;;;;;5051662;28;20212;-76
2023/07/01 05:23:12;;;;;;;2.53;1.00;;;20.90;85.00;;;;;;5051056;28;20192;-77
2023/07/01 05:25:38;;;;;;;2.70;1.17;;;20.90;85.00;;;;;;5052524;28;20214;-77
2023/07/01 05:28:04;;;;;;;2.50;0.97;;;21.00;85.00;;;;;;5016922;28;20652;-77
2023/07/01 05:30:29;;;;;;;2.80;1.20;;;21.00;85.00;;;;;;5033153;28;21230;-77
2023/07/01 05:32:55;;;;;;;2.77;1.10;;;21.10;84.90;;;;;;5051315;28;20196;-77
2023/07/01 05:35:21;;;;;;;1.80;1.03;;;21.10;84.80;;;;;;5033469;28;20177;-76
2023/07/01 05:37:46;;;;;;;3.13;1.20;;;21.20;84.90;;;;;;5051656;28;20168;-77
2023/07/01 05:40:12;;;;;;;2.93;0.90;;;21.20;84.60;;;;;;5033365;28;20192;-76
2023/07/01 05:42:39;;;;;;;5.60;1.53;;;21.30;84.50;;;;;;5032640;28;20198;-76
2023/07/01 05:45:05;;;;;;;2.00;1.03;;;21.30;84.50;;;;;;5033073;28;20180;-77
2023/07/01 05:47:32;;;;;;;2.90;1.27;;;21.30;84.40;;;;;;5051142;28;20932;-77
2023/07/01 05:49:57;;;;;;;2.23;0.90;;;21.40;84.60;;;;;;5032541;28;20635;-77
2023/07/01 05:52:23;;;;;;;1.60;0.87;;;21.40;84.70;;;;;;5050219;28;20602;-77
2023/07/01 05:54:49;;;;;;;1.80;1.03;;;21.50;84.80;;;;;;5050875;28;20613;-77
2023/07/01 05:57:15;;;;;;;1.83;0.90;;;21.60;84.30;;;;;;5050871;28;20176;-77
2023/07/01 05:59:40;;;;;;;2.33;0.97;;;21.60;84.10;;;;;;5033296;28;20726;-77
2023/07/01 06:02:07;;;;;;;2.53;1.00;;;21.60;84.20;;;;;;5031946;28;20191;-77
2023/07/01 06:04:33;;;;;;;2.10;0.83;;;21.70;84.50;;;;;;5016620;28;20271;-77
2023/07/01 06:06:59;;;;;;;2.20;1.10;;;21.70;84.50;;;;;;5016123;28;20583;-77
2023/07/01 06:09:25;;;;;;;1.70;0.90;;;21.80;84.60;;;;;;5050722;28;20590;-77
2023/07/01 06:11:52;;;;;;;1.90;0.80;;;21.90;84.70;;;;;;5032012;28;20576;-77
2023/07/01 06:14:18;;;;;;;3.17;1.00;;;22.00;84.60;;;;;;5016194;28;20269;-77
2023/07/01 06:16:45;;;;;;;2.30;0.90;;;22.10;84.60;;;;;;5050193;28;20638;-77
2023/07/01 06:19:10;;;;;;;2.30;1.00;;;22.10;84.60;;;;;;5050586;28;20579;-78
2023/07/01 06:21:36;;;;;;;1.77;0.90;;;22.20;84.70;;;;;;5032007;28;20611;-78
2023/07/01 06:24:02;;;;;;;6.50;1.20;;;22.20;84.90;;;;;;5050812;28;20200;-78
2023/07/01 06:26:28;;;;;;;3.90;0.90;;;22.30;85.00;;;;;;5032830;28;20172;-80
2023/07/01 06:28:53;;;;;;;2.43;1.00;;;22.30;85.10;;;;;;5049885;28;21181;-77
2023/07/01 06:31:19;;;;;;;2.13;0.90;;;22.30;85.10;;;;;;5031485;28;20231;-77
2023/07/01 06:33:45;;;;;;;3.67;1.37;;;22.40;85.20;;;;;;5049833;28;20185;-77
2023/07/01 06:36:12;;;;;;;2.90;1.00;;;22.40;85.70;;;;;;5036256;28;20637;-77
2023/07/01 06:38:40;;;;;;;2.93;1.40;;;22.40;85.70;;;;;;5036309;28;20703;-77
2023/07/01 06:41:06;;;;;;;2.97;1.10;;;22.30;85.90;;;;;;5053589;28;20572;-76
2023/07/01 06:43:32;;;;;;;3.93;1.63;;;22.30;86.00;;;;;;5035991;28;20972;-76
2023/07/01 06:45:59;;;;;;;3.40;1.10;;;22.30;86.70;;;;;;5054386;28;20580;-76
2023/07/01 06:48:25;;;;;;;2.57;1.10;;;22.20;87.10;;;;;;5036777;28;20576;-76
2023/07/01 06:50:50;;;;;;;2.13;1.03;;;22.20;87.50;;;;;;5019065;28;20639;-77
2023/07/01 06:53:16;;;;;;;3.30;1.33;;;22.10;87.90;;;;;;5037826;28;20279;-77
2023/07/01 06:55:42;;;;;;;2.20;1.50;;;22.00;88.00;;;;;;5054347;28;20177;-77
2023/07/01 06:58:07;;;;;;;3.07;1.20;;;21.90;88.40;;;;;;5036830;28;20169;-77
2023/07/01 07:00:33;;;;;;;3.30;1.20;;;21.80;89.10;;;;;;5019095;28;20177;-76
2023/07/01 07:03:00;;;;;;;2.87;1.00;;;21.70;90.00;;;;;;5053897;28;20219;-77
2023/07/01 07:05:26;;;;;;;3.23;1.10;;;21.50;90.40;;;;;;5053812;28;20188;-77
2023/07/01 07:07:52;;;;;;;4.03;1.60;;;21.40;90.90;;;;;;5037829;28;20579;-77
2023/07/01 07:10:18;;;;;;;1.90;1.10;;;21.30;91.40;;;;;;5031899;28;20673;-76
2023/07/01 07:12:44;;;;;;;4.20;1.13;;;21.20;92.10;;;;;;5053788;28;20189;-77
2023/07/01 07:15:10;;;;;;;4.07;1.40;;;21.10;92.70;;;;;;5019545;28;20587;-77
2023/07/01 07:17:36;;;;;;;2.57;1.10;;;21.00;93.20;;;;;;5036633;28;20592;-76
2023/07/01 07:20:01;;;;;;;3.00;1.33;;;20.90;93.70;;;;;;5036320;28;20177;-77
2023/07/01 07:22:27;;;;;;;2.07;1.03;;;20.90;94.20;;;;;;5034813;28;20680;-76
2023/07/01 07:24:53;;;;;;;1.83;1.13;;;20.80;94.80;;;;;;5053559;28;21118;-76
2023/07/01 07:27:19;;;;;;;3.10;1.10;;;20.80;95.50;;;;;;5035369;28;20177;-77
2023/07/01 07:29:44;;;;;;;1.87;1.20;;;20.80;96.00;;;;;;5035396;28;20266;-76
2023/07/01 07:32:11;;;;;;;3.03;1.00;;;20.80;96.50;;;;;;5034281;28;21122;-76
2023/07/01 07:34:38;;;;;;;3.57;1.30;;;20.80;97.20;;;;;;5053567;28;20579;-77
2023/07/01 07:37:05;;;;;;;2.13;1.00;;;20.80;97.70;;;;;;5053159;28;20976;-76
2023/07/01 07:39:31;;;;;;;2.83;1.03;;;20.80;98.30;;;;;;5035136;28;20595;-76
2023/07/01 07:41:56;;;;;;;4.33;1.63;;;20.90;98.90;;;;;;5033820;28;20567;-76
2023/07/01 07:44:22;;;;;;;2.30;1.20;;;21.00;99.30;;;;;;5034652;28;20607;-76
2023/07/01 07:46:48;;;;;;;2.30;1.20;;;21.10;99.90;;;;;;5052070;28;20233;-77
2023/07/01 07:49:14;;;;;;;2.50;1.63;;;21.10;99.90;;;;;;5034763;28;20571;-77
2023/07/01 07:51:39;;;;;;;2.10;1.10;;;21.10;99.90;;;;;;5034204;28;20212;-77
2023/07/01 07:54:05;;;;;;;4.40;1.27;;;21.20;99.90;;;;;;5052042;28;20188;-77
2023/07/01 07:56:31;;;;;;;1.87;1.00;;;21.20;99.90;;;;;;5052600;28;20175;-77
2023/07/01 07:58:57;;;;;;;2.07;1.30;;;21.30;99.90;;;;;;5043381;28;20173;-77
2023/07/01 08:01:22;;;;;;;2.43;1.00;;;21.20;99.90;;;;;;5047042;28;20197;-77
2023/07/01 08:03:48;;;;;;;3.57;1.67;;;21.30;99.90;;;;;;5033905;28;20214;-78
2023/07/01 08:06:13;;;;;;;2.10;0.90;;;21.30;99.90;;;;;;5052497;28;20194;-78
2023/07/01 08:08:39;;;;;;;1.90;1.00;;;21.30;99.90;;;;;;5034312;28;20180;-78
2023/07/01 08:11:05;;;;;;;2.50;1.10;;;21.40;99.90;;;;;;5034421;28;20205;-78
2023/07/01 08:13:30;;;;;;;2.47;1.10;;;21.40;99.90;;;;;;5034107;28;20300;-77
2023/07/01 08:15:57;;;;;;;3.03;1.20;;;21.40;99.90;;;;;;5034372;28;20184;-77
2023/07/01 08:18:23;;;;;;;3.00;1.10;;;21.40;99.90;;;;;;5052452;28;20231;-77
2023/07/01 08:20:50;;;;;;;2.67;0.90;;;21.40;99.90;;;;;;5051691;28;20567;-78
2023/07/01 08:23:16;;;;;;;2.13;0.80;;;21.40;99.90;;;;;;5051862;28;20199;-77
2023/07/01 08:25:43;;;;;;;1.90;0.87;;;21.40;99.90;;;;;;5017435;28;20579;-77
2023/07/01 08:28:09;;;;;;;1.60;0.70;;;21.40;99.90;;;;;;5033781;28;20641;-76
2023/07/01 08:30:35;;;;;;;2.70;0.90;;;21.30;99.90;;;;;;5033630;28;20635;-76
2023/07/01 08:33:00;;;;;;;2.33;0.90;;;21.30;99.90;;;;;;5033945;28;20665;-77
2023/07/01 08:35:28;;;;;;;2.00;0.90;;;21.20;99.90;;;;;;5033929;28;20956;-77
2023/07/01 08:37:54;;;;;;;3.37;0.80;;;21.20;99.90;;;;;;5034117;28;20584;-79
2023/07/01 08:40:19;;;;;;;3.50;1.00;;;21.20;99.90;;;;;;5033635;28;20596;-77
2023/07/01 08:42:58;;;;;;;2.73;0.80;;;21.10;99.90;;;;;;4999545;28;20201;-77
2023/07/01 08:45:24;;;;;;;2.03;1.33;;;21.10;99.90;;;;;;5032998;28;20180;-77
2023/07/01 08:47:52;;;;;;;5.20;1.07;;;21.10;99.90;;;;;;5033471;28;20611;-77
2023/07/01 08:50:20;;;;;;;1.60;0.90;;;21.20;99.90;;;;;;5033873;28;20631;-77
2023/07/01 08:52:52;;;;;;;3.27;0.90;;;21.20;99.90;;;;;;5050736;28;20945;-77
2023/07/01 08:55:18;;;;;;;1.87;1.00;;;21.20;99.90;;;;;;5033903;28;20592;-77
2023/07/01 08:57:43;;;;;;;3.03;1.00;;;21.30;99.90;;;;;;5032817;28;21390;-77
2023/07/01 09:00:12;;;;;;;1.83;0.80;;;21.30;99.90;;;;;;5051270;28;20226;-77
2023/07/01 09:02:39;;;;;;;2.13;0.90;;;21.40;99.90;;;;;;5051455;28;20727;-77
2023/07/01 09:05:05;;;;;;;1.93;0.80;;;21.50;99.90;;;;;;5033492;28;20605;-77
2023/07/01 09:07:31;;;;;;;1.63;0.80;;;21.60;99.90;;;;;;5033070;28;20592;-78
2023/07/01 09:09:57;;;;;;;1.93;0.80;;;21.70;99.90;;;;;;5034046;28;21190;-77
2023/07/01 09:12:26;;;;;;;1.93;0.60;;;21.90;99.90;;;;;;5032345;28;20199;-78
2023/07/01 09:15:12;;;;;;;2.27;0.80;;;21.90;99.90;;;;;;5016644;28;21005;-77
2023/07/01 09:17:40;;;;;;;1.40;0.60;;;22.10;99.90;;;;;;5016644;28;20579;-77
2023/07/01 09:20:11;;;;;;;1.70;0.70;;;22.30;99.90;;;;;;5033076;28;20586;-78
2023/07/01 09:22:43;;;;;;;2.60;0.80;;;22.40;99.90;;;;;;5050390;28;20616;-78
2023/07/01 09:25:09;;;;;;;1.50;0.70;;;22.50;99.90;;;;;;5050870;28;20579;-78
2023/07/01 09:27:49;;;;;;;1.60;0.77;;;22.60;99.90;;;;;;5033396;28;20587;-77
2023/07/01 09:30:28;;;;;;;1.70;0.60;;;22.60;99.90;;;;;;5050784;28;21017;-78
2023/07/01 09:33:15;;;;;;;1.70;0.77;;;22.70;99.90;;;;;;5050757;28;20672;-78
2023/07/01 09:35:46;;;;;;;2.63;0.87;;;22.80;99.90;;;;;;5032768;28;20637;-77
2023/07/01 09:38:13;;;;;;;1.40;0.70;;;22.80;99.90;;;;;;5032777;28;20579;-77
2023/07/01 09:40:38;;;;;;;1.40;0.70;;;22.80;99.90;;;;;;5015602;28;20579;-77
2023/07/01 09:43:04;;;;;;;1.43;0.70;;;22.80;99.90;;;;;;5032231;28;20726;-77
2023/07/01 09:45:30;;;;;;;2.07;0.80;;;22.80;99.90;;;;;;5032627;28;20606;-78
2023/07/01 09:47:56;;;;;;;2.53;0.70;;;22.70;99.90;;;;;;5033475;28;20633;-75
2023/07/01 09:50:29;;;;;;;1.60;0.77;;;22.80;99.90;;;;;;5032526;28;20201;-74
2023/07/01 09:52:56;;;;;;;1.40;0.70;;;22.70;99.90;;;;;;5032219;28;20661;-75
2023/07/01 09:55:23;;;;;;;1.60;0.80;;;22.80;99.90;;;;;;5032914;28;20982;-75
2023/07/01 09:57:49;;;;;;;1.40;0.60;;;22.70;99.90;;;;;;5050305;28;21201;-75
2023/07/01 10:00:16;;;;;;;4.13;0.70;;;22.70;99.90;;;;;;5050511;28;20670;-75
2023/07/01 10:02:46;;;;;;;1.70;0.73;;;22.70;99.90;;;;;;5049553;28;20626;-74
2023/07/01 10:05:13;;;;;;;1.50;0.70;;;22.60;99.90;;;;;;5032607;28;20586;-74
2023/07/01 10:07:43;;;;;;;1.97;0.60;;;22.60;99.90;;;;;;5032064;28;20579;-74
2023/07/01 10:10:16;;;;;;;1.40;0.70;;;22.50;99.90;;;;;;5049815;28;20635;-74
2023/07/01 10:12:44;;;;;;;5.60;1.10;;;22.50;99.90;;;;;;5049297;28;20971;-75
2023/07/01 10:15:11;;;;;;;2.17;1.10;;;22.40;99.90;;;;;;5050361;28;20578;-74
2023/07/01 10:17:54;;;;;;;2.47;0.90;;;22.30;99.90;;;;;;5050031;28;20588;-74
2023/07/01 10:20:27;;;;;;;3.50;0.70;;;22.30;99.90;;;;;;5050153;28;20582;-74
2023/07/01 10:22:58;;;;;;;2.73;0.80;;;22.20;99.90;;;;;;5049748;28;20615;-74
2023/07/01 10:25:31;;;;;;;7.40;0.80;;;22.20;99.90;;;;;;5012305;28;20596;-74
2023/07/01 10:28:06;;;;;;;5.23;0.80;;;22.10;99.90;;;;;;5033778;28;20690;-74
2023/07/01 10:30:44;;;;;;;4.53;0.93;;;22.00;99.90;;;;;;5031241;28;20730;-75
2023/07/01 10:33:32;;;;;;;1.50;0.70;;;22.00;99.90;;;;;;5030375;28;20711;-74
2023/07/01 10:36:06;;;;;;;2.53;0.93;;;21.90;99.90;;;;;;5047925;28;20587;-74
2023/07/01 10:38:33;;;;;;;2.70;0.63;;;21.90;99.90;;;;;;5031077;28;21052;-75
2023/07/01 10:40:59;;;;;;;1.53;0.70;;;21.90;99.90;;;;;;5031447;28;20693;-75
2023/07/01 10:43:38;;;;;;;1.63;0.80;;;21.80;99.90;;;;;;5031708;28;20627;-75
2023/07/01 10:46:12;;;;;;;2.07;0.53;;;21.90;99.90;;;;;;5032606;28;20591;-74
2023/07/01 10:48:42;;;;;;;1.90;0.60;;;21.90;99.90;;;;;;5032051;28;20587;-74
2023/07/01 10:51:13;;;;;;;1.27;0.50;;;22.00;99.90;;;;;;5031141;28;21061;-75
2023/07/01 10:54:03;;;;;;;2.10;0.80;;;22.00;99.90;;;;;;5041978;28;20648;-76
2023/07/01 10:56:35;;;;;;;1.30;0.50;;;22.10;99.90;;;;;;5045985;28;20653;-77
2023/07/01 10:59:21;;;;;;;1.60;0.60;;;22.10;99.90;;;;;;5031655;28;20639;-77
2023/07/01 11:01:51;;;;;;;1.30;0.53;;;22.10;99.90;;;;;;5024021;28;20634;-77
2023/07/01 11:04:19;;;;;;;1.60;0.50;;;22.20;99.90;;;;;;5029726;28;20685;-77
2023/07/01 11:06:52;;;;;;;1.30;0.60;;;22.30;99.90;;;;;;4995388;28;20926;-77
2023/07/01 11:09:32;;;;;;;1.20;0.40;;;22.30;99.90;;;;;;5012185;28;20587;-77
2023/07/01 11:12:00;;;;;;;1.30;0.50;;;22.40;99.90;;;;;;5012848;28;20596;-77
2023/07/01 11:14:38;;;;;;;1.73;0.50;;;22.40;99.90;;;;;;5031549;28;21579;-77
2023/07/01 11:17:17;;;;;;;1.80;0.50;;;22.50;99.90;;;;;;5031953;28;20729;-76
2023/07/01 11:19:46;;;;;;;1.70;0.50;;;22.50;99.90;;;;;;5048438;28;20580;-76
2023/07/01 11:22:16;;;;;;;2.97;0.50;;;22.50;99.90;;;;;;5010482;28;21204;-76
2023/07/01 11:24:42;;;;;;;1.30;0.40;;;22.50;99.90;;;;;;5035137;28;20645;-76
2023/07/01 11:27:09;;;;;;;11.50;0.77;;;22.40;99.90;;;;;;5047623;28;20966;-77
2023/07/01 11:29:36;;;;;;;1.30;0.40;;;22.40;99.90;;;;;;5005479;28;20639;-76
2023/07/01 11:32:09;;;;;;;1.80;0.47;;;22.30;99.90;;;;;;5034060;28;20583;-77
2023/07/01 11:34:35;;;;;;;1.20;0.47;;;22.30;99.90;;;;;;5018348;28;20698;-77
2023/07/01 11:37:01;;;;;;;1.20;0.37;;;22.20;99.90;;;;;;5017003;28;21198;-77
2023/07/01 11:39:27;;;;;;;1.13;0.40;;;22.20;99.90;;;;;;5015631;28;20189;-77
2023/07/01 11:41:55;;;;;;;1.30;0.60;;;22.10;99.90;;;;;;5014595;28;20624;-77
2023/07/01 11:44:32;;;;;;;4.33;0.50;;;22.10;99.90;;;;;;5032448;28;21180;-77
2023/07/01 11:46:57;;;;;;;1.70;0.50;;;22.10;99.90;;;;;;5014752;28;20600;-77
2023/07/01 11:49:23;;;;;;;1.40;0.60;;;22.00;99.90;;;;;;5033179;28;20618;-75
2023/07/01 11:51:54;;;;;;;1.40;0.67;;;22.00;99.90;;;;;;5033084;28;20204;-75
2023/07/01 11:54:40;;;;;;;1.77;1.00;;;22.00;99.90;;;;;;5033381;28;20280;-75
2023/07/01 11:57:17;;;;;;;1.63;0.70;;;22.00;99.90;;;;;;5033330;28;20686;-75
2023/07/01 11:59:45;;;;;;;1.50;0.60;;;22.00;99.90;;;;;;5032782;28;20582;-75
2023/07/01 12:02:11;;;;;;;2.80;0.70;;;22.00;99.90;;;;;;5050562;28;20602;-75
2023/07/01 12:04:37;;;;;;;1.40;0.50;;;21.90;99.90;;;;;;5051391;28;20587;-75
2023/07/01 12:07:08;;;;;;;1.20;0.60;;;22.00;99.90;;;;;;5033635;28;20618;-75
2023/07/01 12:09:35;;;;;;;1.30;0.60;;;22.00;99.90;;;;;;5016792;28;20173;-75
2023/07/01 12:12:00;;;;;;;2.00;0.70;;;22.00;99.90;;;;;;5034129;28;20588;-75
2023/07/01 12:14:27;;;;;;;1.40;0.53;;;22.10;99.90;;;;;;5034453;28;20622;-75
2023/07/01 12:16:53;;;;;;;1.87;0.77;;;22.10;99.90;;;;;;5052238;28;20583;-76
2023/07/01 12:19:23;;;;;;;5.30;0.70;;;22.10;99.90;;;;;;5034622;28;20583;-75
2023/07/01 12:21:51;;;;;;;1.73;0.80;;;22.20;99.90;;;;;;5016940;28;20658;-75
2023/07/01 12:24:25;;;;;;;1.40;0.70;;;22.20;99.90;;;;;;5034404;28;20626;-75
2023/07/01 12:26:56;;;;;;;1.33;0.70;;;22.30;99.90;;;;;;5034142;28;20583;-75
2023/07/01 12:29:23;;;;;;;1.30;0.50;;;22.30;99.90;;;;;;5052285;28;20607;-76
2023/07/01 12:31:49;;;;;;;1.40;0.50;;;22.40;99.90;;;;;;5032719;28;20635;-76
2023/07/01 12:34:16;;;;;;;1.37;0.60;;;22.40;99.90;;;;;;5033668;28;20619;-75
2023/07/01 12:36:43;;;;;;;1.60;0.50;;;22.40;99.90;;;;;;5017164;28;20584;-75
2023/07/01 12:39:10;;;;;;;1.83;0.60;;;22.50;99.90;;;;;;5034214;28;20586;-75
2023/07/01 12:41:36;;;;;;;1.40;0.60;;;22.50;99.90;;;;;;5050435;28;21217;-75
2023/07/01 12:44:06;;;;;;;1.30;0.60;;;22.60;99.90;;;;;;5052214;28;20611;-75
2023/07/01 12:46:32;;;;;;;1.50;0.67;;;22.50;99.90;;;;;;5033590;28;21170;-75
2023/07/01 12:49:00;;;;;;;1.97;0.50;;;22.40;99.90;;;;;;5051975;28;20678;-75
2023/07/01 12:51:33;;;;;;;2.07;0.77;;;22.40;99.90;;;;;;5051274;28;20706;-75